createdAt,value
2019-02-21T00:00:41.423Z,27.95
2019-02-21T00:03:09.334Z,27.40
2019-02-21T00:05:38.768Z,29.12
2019-02-21T00:08:07.000Z,29.85
2019-02-21T00:10:35.271Z,28.27
2019-02-21T00:13:03.233Z,30.08
2019-02-21T00:15:31.107Z,32.48
2019-02-21T00:17:59.336Z,32.15
2019-02-21T00:20:27.063Z,28.95
2019-02-21T00:22:55.867Z,30.52
2019-02-21T00:25:23.797Z,28.00
2019-02-21T00:27:51.649Z,31.12
2019-02-21T00:30:19.529Z,28.07
2019-02-21T00:32:47.338Z,36.58
2019-02-21T00:35:15.976Z,28.25
2019-02-21T00:37:44.821Z,33.78
2019-02-21T00:40:15.441Z,31.10
2019-02-21T00:42:43.368Z,33.92
2019-02-21T00:45:11.439Z,33.25
2019-02-21T00:47:39.473Z,29.98
2019-02-21T00:50:07.274Z,33.55
2019-02-21T00:52:35.190Z,31.37
2019-02-21T00:55:03.242Z,36.53
2019-02-21T00:57:30.940Z,34.25
2019-02-21T00:59:59.307Z,29.55
2019-02-21T01:02:27.038Z,34.00
2019-02-21T01:04:54.975Z,33.80
2019-02-21T01:07:22.708Z,36.05
2019-02-21T01:09:50.699Z,32.33
2019-02-21T01:12:18.727Z,29.10
2019-02-21T01:14:46.556Z,34.03
2019-02-21T01:17:14.322Z,35.33
2019-02-21T01:19:42.690Z,38.00
2019-02-21T01:22:12.227Z,35.50
2019-02-21T01:24:40.490Z,37.13
2019-02-21T01:27:08.200Z,45.43
2019-02-21T01:29:35.869Z,34.98
2019-02-21T01:32:03.879Z,35.73
2019-02-21T01:34:31.911Z,31.37
2019-02-21T01:36:59.627Z,34.67
2019-02-21T01:39:28.051Z,36.23
2019-02-21T01:41:55.819Z,38.10
2019-02-21T01:44:25.688Z,41.30
2019-02-21T01:46:53.374Z,38.73
2019-02-21T01:49:21.427Z,39.18
2019-02-21T01:51:49.361Z,39.03
2019-02-21T01:54:17.313Z,31.80
2019-02-21T01:56:45.091Z,35.73
2019-02-21T01:59:19.082Z,33.28
2019-02-21T02:01:50.127Z,34.65
2019-02-21T02:04:18.066Z,34.38
2019-02-21T02:06:46.847Z,36.00
2019-02-21T02:09:14.795Z,31.50
2019-02-21T02:11:42.514Z,31.12
2019-02-21T02:14:10.412Z,36.42
2019-02-21T02:16:38.223Z,33.15
2019-02-21T02:19:09.411Z,29.02
2019-02-21T02:21:37.244Z,36.10
2019-02-21T02:24:05.179Z,33.42
2019-02-21T02:26:33.456Z,34.15
2019-02-21T02:29:06.208Z,34.75
2019-02-21T02:31:36.589Z,32.38
2019-02-21T02:34:10.338Z,31.30
2019-02-21T02:36:38.342Z,34.43
2019-02-21T02:39:08.396Z,30.00
2019-02-21T02:41:36.760Z,30.25
2019-02-21T02:44:04.827Z,30.62
2019-02-21T02:46:33.099Z,32.17
2019-02-21T02:49:03.138Z,27.42
2019-02-21T02:51:30.955Z,31.45
2019-02-21T02:53:58.738Z,34.60
2019-02-21T02:56:26.663Z,30.90
2019-02-21T02:59:00.609Z,29.15
2019-02-21T03:01:34.769Z,35.83
2019-02-21T03:04:00.461Z,33.92
2019-02-21T03:06:28.117Z,33.98
2019-02-21T03:08:56.278Z,29.25
2019-02-21T03:11:24.030Z,32.48
2019-02-21T03:13:52.074Z,32.03
2019-02-21T03:16:19.789Z,30.82
2019-02-21T03:18:47.738Z,28.77
2019-02-21T03:21:15.557Z,29.48
2019-02-21T03:23:44.251Z,32.53
2019-02-21T03:26:11.918Z,34.35
2019-02-21T03:28:40.459Z,32.83
2019-02-21T03:31:10.234Z,32.95
2019-02-21T03:33:41.785Z,31.95
2019-02-21T03:36:12.324Z,30.95
2019-02-21T03:38:41.053Z,31.33
2019-02-21T03:41:09.105Z,35.75
2019-02-21T03:43:37.026Z,33.55
2019-02-21T03:46:06.104Z,37.70
2019-02-21T03:48:33.942Z,28.83
2019-02-21T03:51:01.738Z,31.75
2019-02-21T03:53:31.384Z,33.95
2019-02-21T03:55:59.299Z,30.45
2019-02-21T03:58:28.057Z,38.10
2019-02-21T04:00:56.376Z,35.60
2019-02-21T04:03:24.401Z,30.62
2019-02-21T04:05:53.736Z,26.70
2019-02-21T04:08:21.759Z,26.60
2019-02-21T04:10:50.523Z,26.62
2019-02-21T04:13:25.594Z,24.55
2019-02-21T04:15:54.046Z,26.12
2019-02-21T04:18:23.154Z,30.57
2019-02-21T04:20:50.979Z,26.73
2019-02-21T04:23:19.986Z,28.38
2019-02-21T04:25:47.992Z,24.92
2019-02-21T04:28:15.735Z,25.97
2019-02-21T04:30:44.018Z,23.77
2019-02-21T04:33:14.739Z,28.62
2019-02-21T04:35:42.707Z,30.23
2019-02-21T04:38:10.480Z,25.45
2019-02-21T04:40:38.429Z,26.20
2019-02-21T04:43:06.257Z,23.57
2019-02-21T04:45:34.170Z,27.48
2019-02-21T04:48:03.186Z,24.50
2019-02-21T04:50:30.903Z,23.57
2019-02-21T04:52:58.940Z,23.55
2019-02-21T04:55:27.215Z,23.98
2019-02-21T04:57:55.124Z,28.87
2019-02-21T05:00:22.901Z,24.67
2019-02-21T05:02:51.617Z,22.93
2019-02-21T05:05:19.535Z,30.85
2019-02-21T05:07:48.739Z,25.82
2019-02-21T05:10:16.845Z,22.90
2019-02-21T05:12:45.110Z,23.95
2019-02-21T05:15:14.133Z,29.98
2019-02-21T05:17:42.168Z,25.68
2019-02-21T05:20:09.901Z,22.62
2019-02-21T05:22:37.907Z,23.05
2019-02-21T05:25:05.959Z,24.07
2019-02-21T05:58:24.443Z,28.00
2019-02-21T06:01:21.767Z,26.05
2019-02-21T06:04:09.328Z,28.10
2019-02-21T06:07:15.173Z,30.48
2019-02-21T06:09:52.028Z,29.32
2019-02-21T06:12:42.442Z,26.55
2019-02-21T06:15:38.787Z,33.65
2019-02-21T06:18:26.213Z,27.17
2019-02-21T06:21:14.217Z,29.40
2019-02-21T06:23:49.229Z,33.35
2019-02-21T06:26:24.850Z,29.95
2019-02-21T06:29:00.232Z,25.97
2019-02-21T06:31:29.200Z,32.00
2019-02-21T06:33:56.968Z,28.10
2019-02-21T06:36:26.960Z,26.87
2019-02-21T06:38:54.740Z,27.22
2019-02-21T06:41:22.642Z,30.05
2019-02-21T06:43:52.605Z,29.42
2019-02-21T06:46:20.381Z,26.37
2019-02-21T06:48:48.308Z,23.92
2019-02-21T06:51:16.081Z,30.70
2019-02-21T06:53:44.058Z,25.20
2019-02-21T06:56:11.722Z,31.60
2019-02-21T06:58:42.092Z,27.22
2019-02-21T07:01:10.455Z,28.62
2019-02-21T07:03:40.785Z,31.85
2019-02-21T07:06:08.492Z,27.05
2019-02-21T07:08:37.324Z,28.67
2019-02-21T07:11:06.603Z,25.50
2019-02-21T07:13:35.921Z,27.40
2019-02-21T07:16:03.844Z,25.90
2019-02-21T07:18:31.624Z,25.85
2019-02-21T07:20:59.919Z,33.18
2019-02-21T07:23:27.950Z,27.35
2019-02-21T07:25:59.005Z,26.77
2019-02-21T07:28:27.863Z,27.02
2019-02-21T07:30:57.184Z,28.00
2019-02-21T07:33:28.699Z,29.48
2019-02-21T07:35:54.980Z,30.88
2019-02-21T07:38:22.668Z,29.37
2019-02-21T07:40:50.749Z,30.32
2019-02-21T07:43:20.639Z,26.75
2019-02-21T07:45:49.269Z,31.17
2019-02-21T07:48:17.147Z,28.52
2019-02-21T07:50:45.046Z,29.00
2019-02-21T07:53:12.825Z,27.60
2019-02-21T07:55:40.767Z,27.67
2019-02-21T07:58:08.468Z,29.30
2019-02-21T08:00:36.487Z,26.40
2019-02-21T08:03:04.340Z,32.08
2019-02-21T08:05:33.458Z,29.82
2019-02-21T08:08:01.285Z,31.23
2019-02-21T08:10:33.654Z,29.10
2019-02-21T08:12:59.036Z,27.17
2019-02-21T08:15:28.001Z,27.95
2019-02-21T08:17:56.020Z,26.55
2019-02-21T08:20:33.674Z,26.73
2019-02-21T08:22:53.781Z,29.98
2019-02-21T08:25:21.696Z,25.08
2019-02-21T08:27:49.398Z,24.37
2019-02-21T08:30:17.665Z,29.37
2019-02-21T08:33:08.772Z,25.87
2019-02-21T08:35:36.518Z,27.00
2019-02-21T08:38:04.388Z,27.93
2019-02-21T08:40:32.226Z,22.07
2019-02-21T08:43:00.330Z,24.23
2019-02-21T08:45:28.345Z,68.90
2019-02-21T08:47:55.997Z,25.50
2019-02-21T08:50:24.079Z,19.90
2019-02-21T08:52:52.120Z,19.63
2019-02-21T08:55:19.863Z,23.40
2019-02-21T08:57:47.704Z,20.23
2019-02-21T09:00:16.433Z,20.47
2019-02-21T09:02:45.662Z,19.87
2019-02-21T09:05:14.905Z,18.53
2019-02-21T09:07:42.976Z,22.13
2019-02-21T09:10:11.486Z,21.00
2019-02-21T09:12:39.890Z,20.43
2019-02-21T09:15:10.634Z,19.80
2019-02-21T09:17:38.347Z,19.93
2019-02-21T09:20:07.248Z,18.50
2019-02-21T09:22:34.924Z,20.47
2019-02-21T09:25:03.142Z,19.83
2019-02-21T09:27:30.867Z,20.57
2019-02-21T09:30:05.182Z,17.40
2019-02-21T09:32:33.836Z,17.63
2019-02-21T09:35:01.706Z,18.20
2019-02-21T09:37:29.626Z,17.27
2019-02-21T09:39:57.384Z,17.43
2019-02-21T09:42:25.332Z,17.23
2019-02-21T09:44:53.100Z,17.10
2019-02-21T09:47:21.027Z,15.53
2019-02-21T09:49:48.852Z,18.47
2019-02-21T09:52:16.775Z,17.23
2019-02-21T09:54:47.280Z,16.80
2019-02-21T09:57:14.177Z,17.13
2019-02-21T09:59:41.931Z,14.83
2019-02-21T10:02:09.897Z,15.20
2019-02-21T10:04:37.676Z,15.43
2019-02-21T10:07:05.630Z,16.10
2019-02-21T10:09:34.660Z,17.47
2019-02-21T10:12:03.008Z,19.43
2019-02-21T10:14:32.134Z,17.17
2019-02-21T10:17:00.280Z,17.13
2019-02-21T10:19:28.268Z,17.97
2019-02-21T10:21:56.126Z,16.90
2019-02-21T10:24:23.872Z,16.20
2019-02-21T10:26:51.812Z,17.93
2019-02-21T10:29:19.600Z,15.83
2019-02-21T10:31:47.573Z,15.57
2019-02-21T10:34:15.745Z,14.90
2019-02-21T10:36:43.699Z,15.27
2019-02-21T10:39:11.605Z,16.50
2019-02-21T10:41:39.422Z,19.93
2019-02-21T10:44:07.271Z,16.47
2019-02-21T10:46:35.340Z,15.33
2019-02-21T10:49:03.655Z,14.87
2019-02-21T10:51:31.805Z,16.83
2019-02-21T10:53:59.613Z,15.00
2019-02-21T10:56:27.475Z,14.27
2019-02-21T10:58:55.406Z,15.13
2019-02-21T11:01:23.173Z,16.17
2019-02-21T11:03:51.011Z,16.27
2019-02-21T11:06:19.109Z,14.53
2019-02-21T11:08:47.161Z,16.17
2019-02-21T11:11:17.094Z,20.33
2019-02-21T11:13:44.964Z,16.77
2019-02-21T11:16:12.769Z,14.97
2019-02-21T11:18:41.164Z,15.97
2019-02-21T11:21:08.917Z,15.10
2019-02-21T11:23:38.061Z,14.53
2019-02-21T11:26:05.744Z,17.27
2019-02-21T11:28:33.821Z,15.60
2019-02-21T11:31:01.616Z,20.50
2019-02-21T11:33:29.532Z,20.10
2019-02-21T11:35:58.336Z,15.30
2019-02-21T11:38:26.190Z,17.45
2019-02-21T11:40:55.596Z,14.25
2019-02-21T11:43:23.509Z,13.60
2019-02-21T11:45:55.301Z,13.05
2019-02-21T11:48:21.666Z,13.32
2019-02-21T11:50:49.444Z,14.80
2019-02-21T11:53:17.818Z,16.05
2019-02-21T11:55:46.246Z,21.68
2019-02-21T11:58:14.043Z,13.75
2019-02-21T12:00:41.807Z,24.12
2019-02-21T12:03:10.865Z,13.18
2019-02-21T12:05:38.771Z,14.83
2019-02-21T12:08:10.920Z,14.55
2019-02-21T12:10:39.798Z,14.75
2019-02-21T12:13:08.845Z,15.85
2019-02-21T12:15:36.558Z,14.35
2019-02-21T12:18:04.321Z,13.80
2019-02-21T12:20:32.597Z,16.82
2019-02-21T12:23:01.067Z,15.15
2019-02-21T12:25:28.719Z,14.18
2019-02-21T12:27:56.504Z,14.65
2019-02-21T12:30:24.584Z,13.70
2019-02-21T12:32:52.674Z,25.77
2019-02-21T12:35:29.235Z,15.35
2019-02-21T12:37:50.384Z,14.10
2019-02-21T12:40:18.477Z,14.60
2019-02-21T12:42:46.609Z,13.28
2019-02-21T12:45:16.258Z,14.00
2019-02-21T12:47:50.835Z,13.95
2019-02-21T12:50:17.617Z,13.50
2019-02-21T12:52:48.697Z,14.15
2019-02-21T12:55:27.054Z,13.13
2019-02-21T12:57:51.947Z,12.63
2019-02-21T13:00:19.803Z,14.58
2019-02-21T13:02:52.867Z,14.68
2019-02-21T13:05:20.759Z,14.23
2019-02-21T13:07:48.755Z,13.78
2019-02-21T13:10:17.409Z,14.40
2019-02-21T13:12:45.484Z,12.03
2019-02-21T13:15:13.793Z,12.78
2019-02-21T13:17:41.996Z,15.98
2019-02-21T13:20:10.383Z,12.00
2019-02-21T13:22:38.213Z,11.35
2019-02-21T13:25:06.830Z,13.18
2019-02-21T13:27:34.738Z,15.38
2019-02-21T13:30:03.822Z,11.55
2019-02-21T13:32:32.970Z,12.78
2019-02-21T13:35:05.221Z,12.68
2019-02-21T13:37:33.170Z,13.98
2019-02-21T13:40:01.142Z,12.23
2019-02-21T13:42:29.277Z,12.45
2019-02-21T13:44:56.962Z,10.80
2019-02-21T13:47:25.046Z,12.20
2019-02-21T13:49:53.000Z,11.63
2019-02-21T13:52:20.781Z,13.30
2019-02-21T13:54:51.166Z,10.18
2019-02-21T13:57:18.984Z,15.60
2019-02-21T13:59:46.903Z,12.18
2019-02-21T14:02:16.412Z,11.93
2019-02-21T14:04:44.151Z,15.40
2019-02-21T14:07:14.171Z,12.07
2019-02-21T14:09:42.074Z,11.78
2019-02-21T14:12:10.766Z,13.93
2019-02-21T14:14:38.540Z,14.63
2019-02-21T14:17:06.463Z,16.10
2019-02-21T14:19:34.677Z,13.90
2019-02-21T14:22:02.626Z,13.20
2019-02-21T14:24:36.927Z,13.78
2019-02-21T14:29:39.181Z,12.73
2019-02-21T14:32:02.343Z,12.43
2019-02-21T14:34:30.147Z,12.63
2019-02-21T14:36:57.830Z,14.40
2019-02-21T14:39:25.919Z,13.98
2019-02-21T14:41:53.672Z,12.18
2019-02-21T14:44:22.420Z,22.02
2019-02-21T14:46:50.435Z,17.45
2019-02-21T14:49:25.736Z,15.30
2019-02-21T14:51:53.848Z,13.00
2019-02-21T14:54:21.651Z,15.68
2019-02-21T14:56:49.450Z,14.03
2019-02-21T14:59:19.987Z,15.83
2019-02-21T15:01:48.082Z,17.07
2019-02-21T15:04:16.407Z,13.85
2019-02-21T15:06:44.340Z,14.03
2019-02-21T15:09:12.169Z,16.02
2019-02-21T15:11:40.039Z,15.95
2019-02-21T15:14:09.047Z,16.82
2019-02-21T15:16:36.966Z,14.80
2019-02-21T15:19:06.039Z,13.30
2019-02-21T15:21:34.192Z,12.73
2019-02-21T15:24:09.150Z,12.50
2019-02-21T15:26:37.039Z,12.75
2019-02-21T15:29:05.397Z,21.35
2019-02-21T15:31:33.087Z,13.15
2019-02-21T15:34:01.064Z,14.00
2019-02-21T15:36:37.983Z,17.12
2019-02-21T15:38:58.826Z,15.95
2019-02-21T15:41:26.619Z,13.78
2019-02-21T15:43:55.824Z,15.53
2019-02-21T15:46:26.333Z,17.77
2019-02-21T15:48:54.583Z,20.75
2019-02-21T15:51:22.678Z,15.13
2019-02-21T15:53:50.353Z,17.45
2019-02-21T15:56:18.330Z,18.25
2019-02-21T15:58:46.304Z,15.03
2019-02-21T16:01:15.287Z,19.32
2019-02-21T16:03:44.971Z,16.15
2019-02-21T16:06:13.057Z,16.23
2019-02-21T16:08:41.015Z,18.65
2019-02-21T16:11:10.430Z,22.10
2019-02-21T16:13:38.347Z,15.70
2019-02-21T16:16:07.088Z,18.67
2019-02-21T16:18:34.988Z,17.25
2019-02-21T16:21:03.304Z,23.42
2019-02-21T16:23:30.976Z,21.33
2019-02-21T16:25:58.922Z,25.40
2019-02-21T16:28:26.611Z,21.68
2019-02-21T16:30:54.669Z,24.50
2019-02-21T16:33:22.550Z,24.63
2019-02-21T16:35:50.325Z,18.50
2019-02-21T16:38:18.304Z,18.45
2019-02-21T16:40:45.978Z,17.67
2019-02-21T16:43:14.062Z,20.27
2019-02-21T16:45:46.331Z,18.52
2019-02-21T16:48:11.784Z,18.95
2019-02-21T16:50:39.579Z,17.30
2019-02-21T16:53:07.575Z,19.25
2019-02-21T16:55:35.397Z,25.25
2019-02-21T16:58:03.198Z,21.68
2019-02-21T17:00:47.442Z,22.90
2019-02-21T17:03:01.005Z,21.35
2019-02-21T17:05:30.118Z,25.85
2019-02-21T17:07:57.965Z,24.72
2019-02-21T17:10:25.892Z,24.35
2019-02-21T17:12:56.587Z,25.77
2019-02-21T17:15:24.457Z,23.27
2019-02-21T17:17:52.274Z,28.92
2019-02-21T17:20:20.236Z,36.33
2019-02-21T17:22:47.929Z,34.27
2019-02-21T17:25:16.055Z,38.90
2019-02-21T17:27:43.834Z,42.35
2019-02-21T17:30:14.181Z,45.58
2019-02-21T17:32:41.931Z,50.50
2019-02-21T17:35:09.873Z,64.82
2019-02-21T17:37:38.945Z,59.60
2019-02-21T17:40:08.603Z,42.48
2019-02-21T17:42:36.302Z,49.50
2019-02-21T17:45:05.721Z,40.43
2019-02-21T17:47:33.670Z,41.33
2019-02-21T17:50:01.509Z,37.70
2019-02-21T17:52:31.763Z,39.60
2019-02-21T17:55:00.240Z,40.03
2019-02-21T17:57:28.791Z,34.30
2019-02-21T17:59:56.708Z,31.90
2019-02-21T18:02:24.406Z,34.08
2019-02-21T18:04:52.439Z,30.05
2019-02-21T18:07:20.509Z,31.60
2019-02-21T18:09:48.594Z,24.77
2019-02-21T18:12:17.053Z,32.67
2019-02-21T18:14:45.124Z,23.10
2019-02-21T18:17:12.939Z,28.12
2019-02-21T18:19:40.867Z,28.15
2019-02-21T18:22:09.227Z,27.05
2019-02-21T18:24:41.090Z,26.60
2019-02-21T18:27:08.883Z,22.25
2019-02-21T18:29:36.575Z,25.45
2019-02-21T18:32:06.367Z,29.77
2019-02-21T18:34:35.530Z,30.20
2019-02-21T18:37:03.390Z,25.25
2019-02-21T18:39:31.323Z,31.10
2019-02-21T18:41:59.390Z,29.12
2019-02-21T18:44:27.164Z,23.70
2019-02-21T18:46:57.238Z,29.72
2019-02-21T18:49:27.102Z,32.08
2019-02-21T18:51:55.023Z,26.00
2019-02-21T18:54:22.974Z,23.22
2019-02-21T18:56:50.682Z,21.52
2019-02-21T18:59:31.108Z,22.37
2019-02-21T19:01:50.622Z,24.90
2019-02-21T19:04:21.956Z,25.90
2019-02-21T19:06:50.297Z,27.20
2019-02-21T19:09:19.085Z,24.25
2019-02-21T19:11:47.237Z,22.45
2019-02-21T19:14:21.153Z,31.50
2019-02-21T19:16:49.173Z,27.52
2019-02-21T19:19:16.907Z,31.23
2019-02-21T19:21:44.923Z,27.00
2019-02-21T19:24:12.851Z,26.33
2019-02-21T19:26:44.108Z,34.67
2019-02-21T19:29:11.882Z,25.92
2019-02-21T19:31:39.761Z,25.60
2019-02-21T19:34:11.825Z,24.12
2019-02-21T19:36:41.440Z,27.15
2019-02-21T19:39:12.171Z,27.20
2019-02-21T19:41:41.170Z,25.72
2019-02-21T19:44:09.425Z,21.02
2019-02-21T19:46:37.960Z,26.75
2019-02-21T19:49:06.655Z,23.70
2019-02-21T19:51:34.920Z,28.98
2019-02-21T19:54:02.816Z,24.05
2019-02-21T19:56:31.918Z,26.73
2019-02-21T19:59:01.333Z,27.90
2019-02-21T20:01:29.308Z,24.92
2019-02-21T20:03:59.555Z,25.55
2019-02-21T20:06:27.537Z,21.85
2019-02-21T20:08:58.880Z,27.27
2019-02-21T20:11:26.918Z,31.37
2019-02-21T20:14:02.195Z,25.30
2019-02-21T20:16:29.875Z,27.95
2019-02-21T20:18:57.786Z,26.85
2019-02-21T20:21:25.803Z,26.25
2019-02-21T20:23:53.952Z,31.82
2019-02-21T20:26:21.698Z,23.40
2019-02-21T20:28:49.387Z,23.90
2019-02-21T20:31:17.193Z,24.10
2019-02-21T20:33:44.964Z,28.92
2019-02-21T20:36:12.723Z,21.95
2019-02-21T20:38:40.821Z,22.77
2019-02-21T20:41:08.745Z,19.27
2019-02-21T20:43:36.552Z,23.60
2019-02-21T20:46:04.379Z,21.52
2019-02-21T20:48:33.186Z,19.57
2019-02-21T20:51:01.782Z,24.60
2019-02-21T20:53:31.272Z,20.48
2019-02-21T20:55:58.936Z,21.25
2019-02-21T20:58:26.941Z,29.02
2019-02-21T21:00:54.943Z,24.37
2019-02-21T21:03:24.147Z,21.73
2019-02-21T21:05:51.893Z,21.35
2019-02-21T21:08:21.189Z,21.20
2019-02-21T21:10:49.170Z,24.25
2019-02-21T21:13:17.046Z,23.80
2019-02-21T21:15:44.715Z,38.02
2019-02-21T21:18:14.131Z,18.17
2019-02-21T21:20:41.905Z,23.67
2019-02-21T21:23:10.097Z,21.05
2019-02-21T21:25:37.877Z,18.87
2019-02-21T21:28:05.816Z,18.30
2019-02-21T21:30:33.810Z,23.15
2019-02-21T21:33:01.642Z,19.85
2019-02-21T21:35:29.908Z,19.52
2019-02-21T21:37:58.927Z,20.97
2019-02-21T21:40:26.856Z,21.40
2019-02-21T21:42:54.687Z,18.07
2019-02-21T21:45:22.623Z,23.95
2019-02-21T21:47:50.490Z,19.27
2019-02-21T21:50:18.459Z,24.77
2019-02-21T21:52:46.238Z,22.25
2019-02-21T21:55:14.866Z,21.85
2019-02-21T21:57:42.964Z,25.45
2019-02-21T22:00:14.659Z,24.60
2019-02-21T22:02:45.589Z,26.62
2019-02-21T22:05:15.340Z,20.70
2019-02-21T22:07:43.054Z,19.67
2019-02-21T22:10:11.904Z,19.75
2019-02-21T22:12:39.886Z,26.50
2019-02-21T22:15:09.097Z,21.10
2019-02-21T22:17:36.781Z,19.27
2019-02-21T22:20:04.984Z,18.92
2019-02-21T22:22:33.360Z,18.40
2019-02-21T22:25:01.154Z,20.35
2019-02-21T22:27:34.362Z,16.95
2019-02-21T22:30:02.710Z,18.27
2019-02-21T22:32:30.525Z,19.87
2019-02-21T22:34:58.437Z,21.57
2019-02-21T22:37:26.183Z,20.40
2019-02-21T22:39:54.130Z,23.25
2019-02-21T22:42:26.676Z,19.98
2019-02-21T22:44:54.749Z,19.92
2019-02-21T22:47:28.460Z,17.65
2019-02-21T22:49:56.728Z,16.62
2019-02-21T22:52:25.795Z,18.60
2019-02-21T22:54:53.948Z,19.17
2019-02-21T22:57:26.418Z,22.42
2019-02-21T22:59:55.421Z,18.48
2019-02-21T23:02:24.599Z,17.15
2019-02-21T23:05:18.392Z,24.35
2019-02-21T23:08:18.003Z,21.68
2019-02-21T23:10:46.355Z,21.00
2019-02-21T23:13:14.205Z,17.98
2019-02-21T23:15:41.996Z,19.87
2019-02-21T23:18:09.929Z,22.37
2019-02-21T23:20:37.720Z,19.27
2019-02-21T23:23:05.417Z,16.50
2019-02-21T23:25:33.498Z,19.37
2019-02-21T23:28:04.337Z,21.87
2019-02-21T23:30:32.031Z,23.45
2019-02-21T23:32:59.698Z,21.70
2019-02-21T23:35:27.458Z,24.30
2019-02-21T23:37:55.210Z,18.27
2019-02-21T23:40:23.972Z,18.87
2019-02-21T23:42:51.878Z,19.23
2019-02-21T23:45:20.049Z,17.17
2019-02-21T23:47:49.936Z,19.95
2019-02-21T23:50:19.548Z,23.12
2019-02-21T23:52:47.338Z,26.42
2019-02-21T23:55:15.642Z,21.20
2019-02-21T23:57:43.577Z,24.30
